createdAt,value
2017-12-25T12:29:46.329Z,53.47
2017-12-25T12:30:26.421Z,53.37
2017-12-25T12:31:26.216Z,53.75
2017-12-25T12:32:26.215Z,53.75
2017-12-25T12:33:26.212Z,53.66
2017-12-25T12:34:26.210Z,54.36
2017-12-25T12:35:26.210Z,56.10
2017-12-25T12:36:26.207Z,54.17
2017-12-25T12:37:26.206Z,52.43
2017-12-25T12:38:26.205Z,53.47
2017-12-25T12:39:26.204Z,52.50
2017-12-25T12:40:26.204Z,50.96
2017-12-25T12:41:26.201Z,51.15
2017-12-25T12:42:26.201Z,51.12
2017-12-25T12:43:26.200Z,51.70
2017-12-25T12:44:29.402Z,51.70
2017-12-25T12:45:29.410Z,52.57
2017-12-25T12:46:29.399Z,52.57
2017-12-25T12:47:29.400Z,52.76
2017-12-25T12:48:29.400Z,52.83
2017-12-25T12:49:29.398Z,53.31
2017-12-25T12:50:29.397Z,53.13
2017-12-25T12:51:29.397Z,53.41
2017-12-25T12:52:29.402Z,53.61
2017-12-25T12:53:29.395Z,53.89
2017-12-25T12:54:29.393Z,53.51
2017-12-25T12:55:29.394Z,53.89
2017-12-25T12:56:29.394Z,53.70
2017-12-25T12:57:29.393Z,54.25
2017-12-25T12:58:29.392Z,55.02
2017-12-25T12:59:29.392Z,54.83
2017-12-25T13:00:29.408Z,54.83
2017-12-25T13:01:29.390Z,54.74
2017-12-25T13:02:29.390Z,55.02
2017-12-25T13:03:29.389Z,55.12
2017-12-25T13:04:29.390Z,55.22
2017-12-25T13:05:29.389Z,54.93
2017-12-25T13:06:29.387Z,55.02
2017-12-25T13:07:29.386Z,54.93
2017-12-25T13:08:29.385Z,55.02
2017-12-25T13:09:29.385Z,55.31
2017-12-25T13:10:29.384Z,55.51
2017-12-25T13:11:29.383Z,55.51
2017-12-25T13:12:29.384Z,55.48
2017-12-25T13:13:29.382Z,55.57
2017-12-25T13:14:29.382Z,55.48
2017-12-25T13:15:29.382Z,55.51
2017-12-25T13:16:29.381Z,55.19
2017-12-25T13:17:29.380Z,55.96
2017-12-25T13:18:29.379Z,55.67
2017-12-25T13:19:29.379Z,55.29
2017-12-25T13:20:29.377Z,55.38
2017-12-25T13:21:29.378Z,55.19
2017-12-25T13:22:29.376Z,55.19
2017-12-25T13:23:29.418Z,55.38
2017-12-25T13:24:29.374Z,55.29
2017-12-25T13:25:29.376Z,55.19
2017-12-25T13:26:29.371Z,55.38
2017-12-25T13:27:29.379Z,55.87
2017-12-25T13:28:29.372Z,55.96
2017-12-25T13:29:29.373Z,55.96
2017-12-25T13:30:29.368Z,56.15
2017-12-25T13:31:29.368Z,55.87
2017-12-25T13:32:29.369Z,55.87
2017-12-25T13:33:29.366Z,55.87
2017-12-25T13:34:29.365Z,56.05
2017-12-25T13:35:29.364Z,55.87
2017-12-25T13:36:29.364Z,56.05
2017-12-25T13:37:29.362Z,55.87
2017-12-25T13:38:29.360Z,55.96
2017-12-25T13:39:29.361Z,55.67
2017-12-25T13:40:29.359Z,55.67
2017-12-25T13:41:29.359Z,55.87
2017-12-25T13:42:29.357Z,55.67
2017-12-25T13:43:29.356Z,55.67
2017-12-25T13:44:29.356Z,55.77
2017-12-25T13:45:29.355Z,55.96
2017-12-25T13:46:29.353Z,55.67
2017-12-25T13:47:29.354Z,55.67
2017-12-25T13:48:29.351Z,55.87
2017-12-25T13:49:29.349Z,55.67
2017-12-25T13:50:29.353Z,55.48
2017-12-25T13:51:29.348Z,55.77
2017-12-25T13:52:29.348Z,55.67
2017-12-25T13:53:29.346Z,55.87
2017-12-25T13:54:29.347Z,55.77
2017-12-25T13:55:29.344Z,55.57
2017-12-25T13:56:29.343Z,55.77
2017-12-25T13:57:29.343Z,55.57
2017-12-25T13:58:29.353Z,55.87
2017-12-25T13:59:29.339Z,55.77
2017-12-25T14:00:29.338Z,55.77
2017-12-25T14:01:29.338Z,55.67
2017-12-25T14:02:29.336Z,55.87
2017-12-25T14:03:29.336Z,55.87
2017-12-25T14:04:29.335Z,55.48
2017-12-25T14:05:29.334Z,55.87
2017-12-25T14:06:29.331Z,55.87
2017-12-25T14:07:29.332Z,55.87
2017-12-25T14:08:29.333Z,55.67
2017-12-25T14:09:29.329Z,56.05
2017-12-25T14:10:29.328Z,55.77
2017-12-25T14:11:29.327Z,55.77
2017-12-25T14:12:29.326Z,55.67
2017-12-25T14:13:29.325Z,55.57
2017-12-25T14:14:29.323Z,55.77
2017-12-25T14:15:29.323Z,55.67
2017-12-25T14:16:29.321Z,55.77
2017-12-25T14:17:29.320Z,56.05
2017-12-25T14:18:29.320Z,55.87
2017-12-25T14:19:29.318Z,55.67
2017-12-25T14:20:29.318Z,55.77
2017-12-25T14:21:29.318Z,55.67
2017-12-25T14:22:29.314Z,55.67
2017-12-25T14:23:29.313Z,55.77
2017-12-25T14:24:29.313Z,55.87
2017-12-25T14:25:29.312Z,55.77
2017-12-25T14:26:29.309Z,55.67
2017-12-25T14:27:29.309Z,55.77
2017-12-25T14:28:29.309Z,55.77
2017-12-25T14:29:29.309Z,55.87
2017-12-25T14:30:29.306Z,55.38
2017-12-25T14:31:29.305Z,55.67
2017-12-25T14:32:29.304Z,55.67
2017-12-25T14:33:29.305Z,55.67
2017-12-25T14:34:29.302Z,55.77
2017-12-25T14:35:29.301Z,55.87
2017-12-25T14:36:29.300Z,55.77
2017-12-25T14:37:29.299Z,55.67
2017-12-25T14:38:29.297Z,55.87
2017-12-25T14:39:29.296Z,55.77
2017-12-25T14:40:29.294Z,55.77
2017-12-25T14:41:29.294Z,56.05
2017-12-25T14:42:29.293Z,55.96
2017-12-25T14:43:29.291Z,55.96
2017-12-25T14:44:29.290Z,55.96
2017-12-25T14:45:29.290Z,55.67
2017-12-25T14:46:29.289Z,55.87
2017-12-25T14:47:29.287Z,55.96
2017-12-25T14:48:29.285Z,55.96
2017-12-25T14:49:29.285Z,55.77
2017-12-25T14:50:29.283Z,55.87
2017-12-25T14:51:29.284Z,55.87
2017-12-25T14:52:29.284Z,55.57
2017-12-25T14:53:29.280Z,55.96
2017-12-25T14:54:29.278Z,55.96
2017-12-25T14:55:29.277Z,55.87
2017-12-25T14:56:29.276Z,55.96
2017-12-25T14:57:29.276Z,55.96
2017-12-25T14:58:29.273Z,56.05
2017-12-25T14:59:29.273Z,55.87
2017-12-25T15:00:29.272Z,55.96
2017-12-25T15:01:29.271Z,56.15
2017-12-25T15:02:29.270Z,56.15
2017-12-25T15:03:29.269Z,56.05
2017-12-25T15:04:29.267Z,55.96
2017-12-25T15:05:29.267Z,56.15
2017-12-25T15:06:29.264Z,55.77
2017-12-25T15:07:29.265Z,56.15
2017-12-25T15:08:29.263Z,56.05
2017-12-25T15:09:29.262Z,55.57
2017-12-25T15:10:29.261Z,56.05
2017-12-25T15:11:29.259Z,55.48
2017-12-25T15:12:29.258Z,55.48
2017-12-25T15:13:29.257Z,55.29
2017-12-25T15:14:29.257Z,56.05
2017-12-25T15:15:29.255Z,55.67
2017-12-25T15:16:29.255Z,55.48
2017-12-25T15:17:29.253Z,55.48
2017-12-25T15:18:29.250Z,55.57
2017-12-25T15:19:29.250Z,55.48
2017-12-25T15:20:29.249Z,55.00
2017-12-25T15:21:29.249Z,55.19
2017-12-25T15:22:29.245Z,55.19
2017-12-25T15:23:29.251Z,55.19
2017-12-25T15:24:29.245Z,55.09
2017-12-25T15:25:29.245Z,55.57
2017-12-25T15:26:29.241Z,55.57
2017-12-25T15:27:29.240Z,55.57
2017-12-25T15:28:29.240Z,55.19
2017-12-25T15:29:29.240Z,55.87
2017-12-25T15:30:29.236Z,55.19
2017-12-25T15:31:29.236Z,55.77
2017-12-25T15:32:29.235Z,55.38
2017-12-25T15:33:29.239Z,55.77
2017-12-25T15:34:29.237Z,55.77
2017-12-25T15:35:29.231Z,55.57
2017-12-25T15:36:29.230Z,55.96
2017-12-25T15:37:29.230Z,55.48
2017-12-25T15:38:29.229Z,55.48
2017-12-25T15:39:29.226Z,55.57
2017-12-25T15:40:29.226Z,55.77
2017-12-25T15:41:29.223Z,55.87
2017-12-25T15:42:29.222Z,55.67
2017-12-25T15:43:29.223Z,55.38
2017-12-25T15:44:29.220Z,55.38
2017-12-25T15:45:29.220Z,55.57
2017-12-25T15:46:29.219Z,55.57
2017-12-25T15:47:29.217Z,55.57
2017-12-25T15:48:29.216Z,55.57
2017-12-25T15:49:29.215Z,55.67
2017-12-25T15:50:29.212Z,55.57
2017-12-25T15:51:29.211Z,55.57
2017-12-25T15:52:29.210Z,55.57
2017-12-25T15:53:29.209Z,55.57
2017-12-25T15:54:29.207Z,55.57
2017-12-25T15:55:29.206Z,55.57
2017-12-25T15:56:29.205Z,55.57
2017-12-25T15:57:29.206Z,55.57
2017-12-25T15:58:29.204Z,55.48
2017-12-25T15:59:29.202Z,55.57
2017-12-25T16:00:29.201Z,55.38
2017-12-25T16:01:29.199Z,55.57
2017-12-25T16:02:29.198Z,55.38
2017-12-25T16:03:29.197Z,55.29
2017-12-25T16:04:29.196Z,55.48
2017-12-25T16:05:29.195Z,55.67
2017-12-25T16:06:29.193Z,55.38
2017-12-25T16:07:29.192Z,55.09
2017-12-25T16:08:29.205Z,55.48
2017-12-25T16:09:29.192Z,55.48
2017-12-25T16:10:29.191Z,54.80
2017-12-25T16:11:29.187Z,55.38
2017-12-25T16:12:29.186Z,55.67
2017-12-25T16:13:29.186Z,55.29
2017-12-25T16:14:29.183Z,55.09
2017-12-25T16:15:29.182Z,55.09
2017-12-25T16:16:29.182Z,55.19
2017-12-25T16:17:29.179Z,54.90
2017-12-25T16:18:29.178Z,55.29
2017-12-25T16:19:29.177Z,54.90
2017-12-25T16:20:29.176Z,55.19
2017-12-25T16:21:29.175Z,55.00
2017-12-25T16:22:29.177Z,54.80
2017-12-25T16:23:29.172Z,55.29
2017-12-25T16:24:29.170Z,54.80
2017-12-25T16:25:29.171Z,55.19
2017-12-25T16:26:29.168Z,55.19
2017-12-25T16:27:29.168Z,54.80
2017-12-25T16:28:29.166Z,55.38
2017-12-25T16:29:29.200Z,54.90
2017-12-25T16:30:29.163Z,55.19
2017-12-25T16:31:29.163Z,55.19
2017-12-25T16:32:29.160Z,55.19
2017-12-25T16:33:29.160Z,55.19
2017-12-25T16:34:29.167Z,54.80
2017-12-25T16:35:29.158Z,55.29
2017-12-25T16:36:29.156Z,55.29
2017-12-25T16:37:29.156Z,55.00
2017-12-25T16:38:29.153Z,54.90
2017-12-25T16:39:29.152Z,54.80
2017-12-25T16:40:29.152Z,55.09
2017-12-25T16:41:29.150Z,54.71
2017-12-25T16:42:29.148Z,55.09
2017-12-25T16:43:29.148Z,54.80
2017-12-25T16:44:29.146Z,55.29
2017-12-25T16:45:29.145Z,54.90
2017-12-25T16:46:29.143Z,54.90
2017-12-25T16:47:29.143Z,54.90
2017-12-25T16:48:29.141Z,54.71
2017-12-25T16:49:29.140Z,55.09
2017-12-25T16:50:29.139Z,55.00
2017-12-25T16:51:29.137Z,54.80
2017-12-25T16:52:29.136Z,55.19
2017-12-25T16:53:29.139Z,55.00
2017-12-25T16:54:29.133Z,55.00
2017-12-25T16:55:29.137Z,54.80
2017-12-25T16:56:29.132Z,55.00
2017-12-25T16:57:29.131Z,54.90
2017-12-25T16:58:29.127Z,54.61
2017-12-25T16:59:29.127Z,55.09
2017-12-25T17:00:29.127Z,55.29
2017-12-25T17:01:29.125Z,52.75
2017-12-25T17:02:29.161Z,51.41
2017-12-25T17:03:29.122Z,51.98
2017-12-25T17:04:29.120Z,52.18
2017-12-25T17:05:29.119Z,52.18
2017-12-25T17:06:29.117Z,52.18
2017-12-25T17:07:29.116Z,52.08
2017-12-25T17:08:29.115Z,51.60
2017-12-25T17:09:29.115Z,52.08
2017-12-25T17:10:29.142Z,52.66
2017-12-25T17:11:29.111Z,52.47
2017-12-25T17:12:29.110Z,52.66
2017-12-25T17:13:29.109Z,52.66
2017-12-25T17:14:29.108Z,52.85
2017-12-25T17:15:29.107Z,52.56
2017-12-25T17:16:29.105Z,52.66
2017-12-25T17:17:29.107Z,52.75
2017-12-25T17:18:29.101Z,52.75
2017-12-25T17:19:29.100Z,52.37
2017-12-25T17:20:29.100Z,52.27
2017-12-25T17:21:29.098Z,52.75
2017-12-25T17:22:29.096Z,52.66
2017-12-25T17:23:29.095Z,52.56
2017-12-25T17:24:29.092Z,52.66
2017-12-25T17:25:29.092Z,52.47
2017-12-25T17:26:29.089Z,53.07
2017-12-25T17:27:29.088Z,53.07
2017-12-25T17:28:29.088Z,52.85
2017-12-25T17:29:29.087Z,53.17
2017-12-25T17:30:29.084Z,52.95
2017-12-25T17:31:29.082Z,53.07
2017-12-25T17:32:29.083Z,53.23
2017-12-25T17:33:29.083Z,53.62
2017-12-25T17:34:29.079Z,52.87
2017-12-25T17:35:29.081Z,53.36
2017-12-25T17:36:29.076Z,53.45
2017-12-25T17:37:29.081Z,53.36
2017-12-25T17:38:29.075Z,53.33
2017-12-25T17:39:29.071Z,53.07
2017-12-25T17:40:29.070Z,53.36
2017-12-25T17:41:29.069Z,52.66
2017-12-25T17:42:29.067Z,53.23
2017-12-25T17:43:29.067Z,52.78
2017-12-25T17:44:29.066Z,53.36
2017-12-25T17:45:29.064Z,53.45
2017-12-25T17:46:29.063Z,53.62
2017-12-25T17:47:29.061Z,53.07
2017-12-25T17:48:29.059Z,53.65
2017-12-25T17:49:29.058Z,53.27
2017-12-25T17:50:29.057Z,53.74
2017-12-25T17:51:29.056Z,54.03
2017-12-25T17:52:29.055Z,53.53
2017-12-25T17:53:29.054Z,53.65
2017-12-25T17:54:29.051Z,53.65
2017-12-25T17:55:29.049Z,53.74
2017-12-25T17:56:29.049Z,53.74
2017-12-25T17:57:29.048Z,53.84
2017-12-25T17:58:29.045Z,53.55
2017-12-25T17:59:29.044Z,53.55
2017-12-25T18:00:29.044Z,53.65
2017-12-25T18:01:29.042Z,53.84
2017-12-25T18:02:29.040Z,53.74
2017-12-25T18:03:29.038Z,53.36
2017-12-25T18:04:29.037Z,53.45
2017-12-25T18:05:29.036Z,53.65
2017-12-25T18:06:29.036Z,53.65
2017-12-25T18:07:29.034Z,53.84
2017-12-25T18:08:29.032Z,53.55
2017-12-25T18:09:29.032Z,53.36
2017-12-25T18:10:29.029Z,53.55
2017-12-25T18:11:29.027Z,53.94
2017-12-25T18:12:29.027Z,53.94
2017-12-25T18:13:29.026Z,53.84
2017-12-25T18:14:29.024Z,53.55
2017-12-25T18:15:29.023Z,53.74
2017-12-25T18:16:29.022Z,54.13
2017-12-25T18:17:29.020Z,54.03
2017-12-25T18:18:29.019Z,54.03
2017-12-25T18:19:29.046Z,54.13
2017-12-25T18:20:29.016Z,53.65
2017-12-25T18:21:29.015Z,54.03
2017-12-25T18:22:29.013Z,53.94
2017-12-25T18:23:29.018Z,54.03
2017-12-25T18:24:29.010Z,53.74
2017-12-25T18:25:29.009Z,54.32
2017-12-25T18:26:29.008Z,54.42
2017-12-25T18:27:29.007Z,53.65
2017-12-25T18:28:29.006Z,54.32
2017-12-25T18:29:29.004Z,54.13
2017-12-25T18:30:29.015Z,54.13
2017-12-25T18:31:29.005Z,54.13
2017-12-25T18:32:28.999Z,54.42
2017-12-25T18:33:28.999Z,53.65
2017-12-25T18:34:28.997Z,53.84
2017-12-25T18:35:28.996Z,54.32
2017-12-25T18:36:28.995Z,53.84
2017-12-25T18:37:28.994Z,54.22
2017-12-25T18:38:28.991Z,54.32
2017-12-25T18:39:28.991Z,54.42
2017-12-25T18:40:28.990Z,53.94
2017-12-25T18:41:28.989Z,53.84
2017-12-25T18:42:28.988Z,54.32
2017-12-25T18:43:28.987Z,53.84
2017-12-25T18:44:28.986Z,54.03
2017-12-25T18:45:28.983Z,53.94
2017-12-25T18:46:28.986Z,54.61
2017-12-25T18:47:28.980Z,53.84
2017-12-25T18:48:28.979Z,53.65
2017-12-25T18:49:28.979Z,54.03
2017-12-25T18:50:28.978Z,53.58
2017-12-25T18:51:28.976Z,52.97
2017-12-25T18:52:28.976Z,53.48
2017-12-25T18:53:28.975Z,53.58
2017-12-25T18:54:28.974Z,52.81
2017-12-25T18:55:28.973Z,53.09
2017-12-25T18:56:28.979Z,52.91
2017-12-25T18:57:28.972Z,52.91
2017-12-25T18:58:28.971Z,52.55
2017-12-25T18:59:28.970Z,52.93
2017-12-25T19:00:28.968Z,52.45
2017-12-25T19:01:28.972Z,52.55
2017-12-25T19:02:28.967Z,52.73
2017-12-25T19:03:28.967Z,52.06
2017-12-25T19:04:28.966Z,51.87
2017-12-25T19:05:28.966Z,51.68
2017-12-25T19:06:28.968Z,51.87
2017-12-25T19:07:28.964Z,52.16
2017-12-25T19:08:28.964Z,52.16
2017-12-25T19:09:28.981Z,52.16
2017-12-25T19:10:28.963Z,52.16
2017-12-25T19:11:28.963Z,52.06
2017-12-25T19:12:28.963Z,52.35
2017-12-25T19:13:28.962Z,52.16
2017-12-25T19:14:28.959Z,51.68
2017-12-25T19:15:28.961Z,51.97
2017-12-25T19:16:28.962Z,52.25
2017-12-25T19:17:28.961Z,52.16
2017-12-25T19:18:28.960Z,52.25
2017-12-25T19:19:28.959Z,51.68
2017-12-25T19:20:28.959Z,52.16
2017-12-25T19:21:28.960Z,52.35
2017-12-25T19:22:28.959Z,52.16
2017-12-25T19:23:28.958Z,52.06
2017-12-25T19:24:28.959Z,52.06
2017-12-25T19:25:28.958Z,52.06
2017-12-25T19:26:28.957Z,52.45
2017-12-25T19:27:28.957Z,52.16
2017-12-25T19:28:28.958Z,52.25
2017-12-25T19:29:28.957Z,52.25
2017-12-25T19:30:28.956Z,52.25
2017-12-25T19:31:28.956Z,52.25
2017-12-25T19:32:28.957Z,52.19
2017-12-25T19:33:28.964Z,52.19
2017-12-25T19:34:28.956Z,52.25
2017-12-25T19:35:28.957Z,52.28
2017-12-25T19:36:28.957Z,52.25
2017-12-25T19:37:28.956Z,52.16
2017-12-25T19:38:28.955Z,52.25
2017-12-25T19:39:28.956Z,52.19
2017-12-25T19:40:28.956Z,52.16
2017-12-25T19:41:28.956Z,52.25
2017-12-25T19:42:28.956Z,52.76
2017-12-25T19:43:28.956Z,52.19
2017-12-25T19:44:28.956Z,52.37
2017-12-25T19:45:28.956Z,52.25
2017-12-25T19:46:28.956Z,52.35
2017-12-25T19:47:28.955Z,52.28
2017-12-25T19:48:28.957Z,52.19
2017-12-25T19:49:28.959Z,52.25
2017-12-25T19:50:28.955Z,52.06
2017-12-25T19:51:28.956Z,52.16
2017-12-25T19:52:28.964Z,52.16
2017-12-25T19:53:28.965Z,52.16
2017-12-25T19:54:28.962Z,52.06
2017-12-25T19:55:28.955Z,52.09
2017-12-25T19:56:28.954Z,52.06
2017-12-25T19:57:28.956Z,52.16
2017-12-25T19:58:28.955Z,52.25
2017-12-25T19:59:28.955Z,52.16
2017-12-25T20:00:28.956Z,52.06
2017-12-25T20:01:28.956Z,52.16
2017-12-25T20:02:28.955Z,52.37
2017-12-25T20:03:28.956Z,52.16
2017-12-25T20:04:28.956Z,52.16
2017-12-25T20:05:28.956Z,52.16
2017-12-25T20:06:28.956Z,51.87
2017-12-25T20:07:28.958Z,52.19
2017-12-25T20:08:28.957Z,51.89
2017-12-25T20:09:28.957Z,51.89
2017-12-25T20:10:28.969Z,52.28
2017-12-25T20:11:28.958Z,53.63
2017-12-25T20:12:28.958Z,52.19
2017-12-25T20:13:28.957Z,51.99
2017-12-25T20:14:28.956Z,51.73
2017-12-25T20:15:28.957Z,51.25
2017-12-25T20:16:28.958Z,51.73
2017-12-25T20:17:28.959Z,51.25
2017-12-25T20:18:28.960Z,50.38
2017-12-25T20:19:28.957Z,50.86
2017-12-25T20:20:28.958Z,50.67
2017-12-25T20:21:28.958Z,50.67
2017-12-25T20:22:28.959Z,50.67
2017-12-25T20:23:28.960Z,50.76
2017-12-25T20:24:28.960Z,50.86
2017-12-25T20:25:28.961Z,50.67
2017-12-25T20:26:28.959Z,51.25
2017-12-25T20:27:28.959Z,50.76
2017-12-25T20:28:28.967Z,50.18
2017-12-25T20:29:28.961Z,49.80
2017-12-25T20:30:28.961Z,51.15
2017-12-25T20:31:28.962Z,50.96
2017-12-25T20:32:28.965Z,50.76
2017-12-25T20:33:28.965Z,50.86
2017-12-25T20:34:28.962Z,51.05
2017-12-25T20:35:28.963Z,51.25
2017-12-25T20:36:28.962Z,50.26
2017-12-25T20:37:28.964Z,50.76
2017-12-25T20:38:28.963Z,49.90
2017-12-25T20:39:28.964Z,50.76
2017-12-25T20:40:28.965Z,50.28
2017-12-25T20:41:28.965Z,50.93
2017-12-25T20:42:28.964Z,50.35
2017-12-25T20:43:28.965Z,50.38
2017-12-25T20:44:28.966Z,51.25
2017-12-25T20:45:28.966Z,51.44
2017-12-25T20:46:28.967Z,50.47
2017-12-25T20:47:28.967Z,50.28
2017-12-25T20:48:28.966Z,50.76
2017-12-25T20:49:28.967Z,51.05
2017-12-25T20:50:28.967Z,51.05
2017-12-25T20:51:28.969Z,50.96
2017-12-25T20:52:28.970Z,51.73
2017-12-25T20:53:28.970Z,50.86
2017-12-25T20:54:28.969Z,50.86
2017-12-25T20:55:28.970Z,50.09
2017-12-25T20:56:28.971Z,50.76
2017-12-25T20:57:28.980Z,50.28
2017-12-25T20:58:28.977Z,50.74
2017-12-25T20:59:28.972Z,50.93
2017-12-25T21:00:28.976Z,51.12
2017-12-25T21:01:28.972Z,51.12
2017-12-25T21:02:28.972Z,51.41
2017-12-25T21:03:28.974Z,51.22
2017-12-25T21:04:28.975Z,51.12
2017-12-25T21:05:28.974Z,51.61
2017-12-25T21:06:28.973Z,51.41
2017-12-25T21:07:28.982Z,51.22
2017-12-25T21:08:28.974Z,51.22
2017-12-25T21:09:28.977Z,51.32
2017-12-25T21:10:28.976Z,51.10
2017-12-25T21:11:28.976Z,51.68
2017-12-25T21:12:28.976Z,51.39
2017-12-25T21:13:28.976Z,51.97
2017-12-25T21:14:28.976Z,51.77
2017-12-25T21:15:28.977Z,52.06
2017-12-25T21:16:28.978Z,52.19
2017-12-25T21:17:28.978Z,52.19
2017-12-25T21:18:28.979Z,51.32
2017-12-25T21:19:28.977Z,51.32
2017-12-25T21:20:28.981Z,51.48
2017-12-25T21:21:28.978Z,51.12
2017-12-25T21:22:28.978Z,51.89
2017-12-25T21:23:28.978Z,51.22
2017-12-25T21:24:28.979Z,51.41
2017-12-25T21:25:28.980Z,51.32
2017-12-25T21:26:28.980Z,51.32
2017-12-25T21:27:28.980Z,51.22
2017-12-25T21:28:28.979Z,51.48
2017-12-25T21:29:28.980Z,51.29
2017-12-25T21:30:28.979Z,51.41
2017-12-25T21:31:28.979Z,51.29
2017-12-25T21:32:28.980Z,51.58
2017-12-25T21:33:28.981Z,51.51
2017-12-25T21:34:28.980Z,51.20
2017-12-25T21:35:28.980Z,51.41
2017-12-25T21:36:28.981Z,51.22
2017-12-25T21:37:28.981Z,51.29
2017-12-25T21:38:28.986Z,51.41
2017-12-25T21:39:28.980Z,51.20
2017-12-25T21:40:28.984Z,51.22
2017-12-25T21:41:28.982Z,51.32
2017-12-25T21:42:28.982Z,51.22
2017-12-25T21:43:29.005Z,51.29
2017-12-25T21:44:28.981Z,51.29
2017-12-25T21:45:28.983Z,51.22
2017-12-25T21:46:29.019Z,51.29
2017-12-25T21:47:28.983Z,51.29
2017-12-25T21:48:28.983Z,51.12
2017-12-25T21:49:28.983Z,51.03
2017-12-25T21:50:28.986Z,51.10
2017-12-25T21:51:28.985Z,50.93
2017-12-25T21:52:28.984Z,50.90
2017-12-25T21:53:28.988Z,51.10
2017-12-25T21:54:28.983Z,51.29
2017-12-25T21:55:28.982Z,50.93
2017-12-25T21:56:28.985Z,51.00
2017-12-25T21:57:29.034Z,51.20
2017-12-25T21:58:28.984Z,51.61
2017-12-25T21:59:28.984Z,51.29
2017-12-25T22:00:28.984Z,51.20
2017-12-25T22:01:28.984Z,51.20
2017-12-25T22:02:28.985Z,51.29
2017-12-25T22:03:28.984Z,51.20
2017-12-25T22:04:28.984Z,51.29
2017-12-25T22:05:28.985Z,51.29
2017-12-25T22:06:28.984Z,51.29
2017-12-25T22:07:28.984Z,51.58
2017-12-25T22:08:28.984Z,51.20
2017-12-25T22:09:28.985Z,51.10
2017-12-25T22:10:28.985Z,51.20
2017-12-25T22:11:28.985Z,51.29
2017-12-25T22:12:28.984Z,51.20
2017-12-25T22:13:28.985Z,51.29
2017-12-25T22:14:28.985Z,51.20
2017-12-25T22:15:28.984Z,51.10
2017-12-25T22:16:28.987Z,51.39
2017-12-25T22:17:28.986Z,51.20
2017-12-25T22:18:28.985Z,51.29
2017-12-25T22:19:28.984Z,51.39
